createdAt,value
2022-11-22T00:00:56.096Z,77.92
2022-11-22T00:03:23.979Z,78.06
2022-11-22T00:05:52.201Z,78.29
2022-11-22T00:08:20.154Z,78.14
2022-11-22T00:10:49.857Z,78.32
2022-11-22T00:13:19.719Z,79.00
2022-11-22T00:15:59.554Z,78.50
2022-11-22T00:18:27.532Z,78.98
2022-11-22T00:20:55.420Z,78.82
2022-11-22T00:23:23.530Z,78.67
2022-11-22T00:25:51.603Z,78.83
2022-11-22T00:28:20.933Z,78.64
2022-11-22T00:30:48.880Z,78.80
2022-11-22T00:33:16.877Z,78.88
2022-11-22T00:35:46.644Z,79.20
2022-11-22T00:38:14.607Z,79.04
2022-11-22T00:40:42.631Z,79.25
2022-11-22T00:43:10.604Z,79.16
2022-11-22T00:45:41.953Z,79.20
2022-11-22T00:48:09.868Z,79.23
2022-11-22T00:50:37.831Z,79.26
2022-11-22T00:53:05.853Z,79.12
2022-11-22T00:55:33.753Z,79.13
2022-11-22T00:58:01.882Z,79.09
2022-11-22T01:00:29.870Z,78.90
2022-11-22T01:02:59.210Z,78.92
2022-11-22T01:05:27.134Z,78.91
2022-11-22T01:07:55.269Z,78.98
2022-11-22T01:10:23.903Z,78.98
2022-11-22T01:12:51.818Z,78.95
2022-11-22T01:15:19.882Z,78.83
2022-11-22T01:17:47.785Z,78.97
2022-11-22T01:20:17.096Z,79.49
2022-11-22T01:22:45.122Z,79.62
2022-11-22T01:25:13.343Z,80.44
2022-11-22T01:27:41.344Z,81.28
2022-11-22T01:30:10.141Z,80.87
2022-11-22T01:32:38.023Z,81.47
2022-11-22T01:35:06.648Z,80.92
2022-11-22T01:37:36.253Z,80.33
2022-11-22T01:40:04.550Z,80.61
2022-11-22T01:42:44.574Z,80.74
2022-11-22T01:45:50.027Z,80.61
2022-11-22T01:48:39.085Z,81.51
2022-11-22T01:51:15.571Z,80.68
2022-11-22T01:53:45.363Z,80.57
2022-11-22T01:56:18.027Z,80.77
2022-11-22T01:58:50.145Z,80.76
2022-11-22T02:01:18.252Z,80.50
2022-11-22T02:03:50.765Z,80.20
2022-11-22T02:06:19.886Z,80.19
2022-11-22T02:08:56.204Z,80.18
2022-11-22T02:11:30.990Z,79.83
2022-11-22T02:14:01.969Z,79.95
2022-11-22T02:16:30.089Z,80.13
2022-11-22T02:18:58.030Z,80.14
2022-11-22T02:21:25.986Z,79.83
2022-11-22T02:23:58.689Z,80.28
2022-11-22T02:26:30.329Z,80.07
2022-11-22T02:29:05.269Z,80.23
2022-11-22T02:31:39.367Z,80.10
2022-11-22T02:34:07.379Z,80.12
2022-11-22T02:36:39.704Z,80.45
2022-11-22T02:39:10.165Z,79.91
2022-11-22T02:41:39.966Z,80.15
2022-11-22T02:44:10.600Z,80.29
2022-11-22T02:46:48.040Z,80.88
2022-11-22T02:49:18.715Z,81.62
2022-11-22T02:51:46.977Z,82.61
2022-11-22T02:54:15.179Z,82.26
2022-11-22T02:56:44.769Z,81.95
2022-11-22T02:59:12.731Z,82.07
2022-11-22T03:01:40.943Z,81.58
2022-11-22T03:04:08.933Z,81.48
2022-11-22T03:06:37.065Z,81.10
2022-11-22T03:09:04.954Z,81.16
2022-11-22T03:11:32.891Z,80.92
2022-11-22T03:14:02.154Z,81.30
2022-11-22T03:16:30.902Z,81.51
2022-11-22T03:18:58.796Z,81.16
2022-11-22T03:21:26.820Z,81.21
2022-11-22T03:23:55.840Z,81.26
2022-11-22T03:26:23.793Z,81.29
2022-11-22T03:28:51.748Z,81.82
2022-11-22T03:31:21.129Z,82.02
2022-11-22T03:33:49.204Z,82.00
2022-11-22T03:36:17.082Z,82.02
2022-11-22T03:38:45.337Z,81.76
2022-11-22T03:41:15.385Z,81.88
2022-11-22T03:43:43.338Z,81.60
2022-11-22T03:46:15.770Z,81.51
2022-11-22T03:48:45.061Z,81.33
2022-11-22T03:51:13.221Z,81.32
2022-11-22T03:53:41.099Z,81.46
2022-11-22T03:56:09.144Z,81.38
2022-11-22T03:58:37.012Z,81.78
2022-11-22T04:01:05.098Z,81.73
2022-11-22T04:03:33.199Z,81.41
2022-11-22T04:06:02.801Z,81.51
2022-11-22T04:08:30.780Z,81.57
2022-11-22T04:10:58.744Z,81.69
2022-11-22T04:13:47.320Z,81.89
2022-11-22T04:16:14.454Z,81.69
2022-11-22T04:18:42.558Z,81.76
2022-11-22T04:21:29.516Z,81.86
2022-11-22T04:24:11.368Z,81.96
2022-11-22T04:26:39.428Z,82.27
2022-11-22T04:29:10.143Z,82.62
2022-11-22T04:31:55.866Z,82.47
2022-11-22T04:34:24.417Z,82.27
2022-11-22T04:36:53.750Z,82.21
2022-11-22T04:39:21.798Z,81.99
2022-11-22T04:42:10.399Z,82.09
2022-11-22T04:44:42.999Z,82.04
2022-11-22T04:47:12.110Z,82.09
2022-11-22T04:49:40.130Z,81.70
2022-11-22T04:52:28.241Z,81.62
2022-11-22T04:54:56.205Z,81.47
2022-11-22T04:57:24.129Z,81.62
2022-11-22T04:59:52.222Z,81.42
2022-11-22T05:02:20.213Z,81.49
2022-11-22T05:04:50.825Z,81.62
2022-11-22T05:07:22.373Z,81.53
2022-11-22T05:09:50.281Z,81.53
2022-11-22T05:12:18.265Z,81.54
2022-11-22T05:14:46.158Z,81.58
2022-11-22T05:17:14.105Z,81.88
2022-11-22T05:19:47.789Z,81.57
2022-11-22T05:22:17.246Z,81.65
2022-11-22T05:24:45.624Z,81.79
2022-11-22T05:27:13.537Z,81.74
2022-11-22T05:29:41.478Z,82.13
2022-11-22T05:32:09.471Z,81.97
2022-11-22T05:34:37.437Z,81.73
2022-11-22T05:37:05.457Z,81.85
2022-11-22T05:39:33.407Z,81.93
2022-11-22T05:42:05.901Z,81.92
2022-11-22T05:44:34.165Z,82.09
2022-11-22T05:47:02.117Z,81.97
2022-11-22T05:49:30.328Z,81.76
2022-11-22T05:51:58.476Z,81.69
2022-11-22T05:54:26.469Z,81.89
2022-11-22T05:56:54.389Z,81.69
2022-11-22T05:59:23.912Z,81.61
2022-11-22T06:01:51.807Z,81.84
2022-11-22T06:04:19.951Z,81.47
2022-11-22T06:06:47.984Z,81.64
2022-11-22T06:09:16.116Z,81.57
2022-11-22T06:11:44.078Z,81.77
2022-11-22T06:14:12.042Z,81.56
2022-11-22T06:16:41.327Z,81.80
2022-11-22T06:19:09.413Z,81.81
2022-11-22T06:21:37.392Z,81.82
2022-11-22T06:24:05.713Z,81.52
2022-11-22T06:26:39.095Z,81.48
2022-11-22T06:29:07.612Z,81.91
2022-11-22T06:31:35.621Z,81.95
2022-11-22T06:34:06.002Z,82.17
2022-11-22T06:36:35.910Z,81.83
2022-11-22T06:39:04.094Z,81.62
2022-11-22T06:41:34.767Z,81.88
2022-11-22T06:44:06.638Z,81.83
2022-11-22T06:46:35.348Z,81.70
2022-11-22T06:49:05.082Z,81.57
2022-11-22T06:51:33.779Z,81.81
2022-11-22T06:54:01.814Z,82.03
2022-11-22T06:56:31.826Z,81.88
2022-11-22T06:59:03.187Z,82.23
2022-11-22T07:01:31.720Z,82.71
2022-11-22T07:04:00.609Z,82.22
2022-11-22T07:06:31.640Z,81.96
2022-11-22T07:09:00.512Z,82.08
2022-11-22T07:11:32.750Z,82.10
2022-11-22T07:14:07.498Z,81.66
2022-11-22T07:16:37.040Z,81.63
2022-11-22T07:19:05.559Z,81.62
2022-11-22T07:21:37.432Z,81.71
2022-11-22T07:24:07.671Z,82.18
2022-11-22T07:26:35.848Z,81.87
2022-11-22T07:29:04.152Z,81.73
2022-11-22T07:31:32.164Z,81.68
2022-11-22T07:34:00.163Z,81.67
2022-11-22T07:36:29.647Z,81.58
2022-11-22T07:38:59.395Z,81.53
2022-11-22T07:41:27.414Z,81.61
2022-11-22T07:43:55.805Z,81.46
2022-11-22T07:46:26.460Z,81.35
2022-11-22T07:48:54.522Z,80.89
2022-11-22T07:51:22.771Z,80.93
2022-11-22T07:53:50.783Z,80.63
2022-11-22T07:56:20.419Z,80.45
2022-11-22T07:58:48.544Z,80.63
2022-11-22T08:01:18.363Z,80.50
2022-11-22T08:03:47.218Z,80.45
2022-11-22T08:06:16.625Z,80.43
2022-11-22T08:08:45.698Z,80.56
2022-11-22T08:11:14.372Z,80.59
2022-11-22T08:13:44.684Z,80.69
2022-11-22T08:16:15.044Z,80.46
2022-11-22T08:18:47.117Z,80.64
2022-11-22T08:21:15.931Z,80.15
2022-11-22T08:23:44.504Z,80.52
2022-11-22T08:26:14.516Z,80.39
2022-11-22T08:28:44.751Z,80.01
2022-11-22T08:31:14.938Z,80.18
2022-11-22T08:33:43.185Z,80.16
2022-11-22T08:36:11.346Z,80.46
2022-11-22T08:38:39.700Z,80.36
2022-11-22T08:41:08.419Z,80.37
2022-11-22T08:43:36.647Z,79.91
2022-11-22T08:46:06.577Z,80.03
2022-11-22T08:48:36.814Z,80.14
2022-11-22T08:51:07.343Z,80.20
2022-11-22T08:53:37.343Z,80.14
2022-11-22T08:56:07.087Z,79.75
2022-11-22T08:58:35.593Z,79.56
2022-11-22T09:01:08.412Z,79.36
2022-11-22T09:03:37.126Z,79.51
2022-11-22T09:09:08.738Z,78.92
2022-11-22T09:11:42.017Z,79.61
2022-11-22T09:14:09.957Z,78.92
2022-11-22T09:16:39.245Z,78.82
2022-11-22T09:19:07.259Z,78.89
2022-11-22T09:21:35.266Z,79.51
2022-11-22T09:24:03.342Z,78.97
2022-11-22T09:26:31.423Z,78.38
2022-11-22T09:28:59.296Z,78.36
2022-11-22T09:31:27.229Z,78.57
2022-11-22T09:33:56.503Z,78.33
2022-11-22T09:36:26.952Z,78.59
2022-11-22T09:38:56.208Z,79.34
2022-11-22T09:42:05.334Z,80.52
2022-11-22T09:44:43.399Z,80.08
2022-11-22T09:47:22.957Z,82.15
2022-11-22T09:50:04.587Z,81.50
2022-11-22T09:52:38.317Z,80.04
2022-11-22T09:55:12.332Z,79.85
2022-11-22T09:57:45.607Z,81.70
2022-11-22T10:00:20.924Z,83.04
2022-11-22T10:03:00.343Z,83.42
2022-11-22T10:05:35.746Z,81.12
2022-11-22T10:08:27.278Z,79.81
2022-11-22T10:10:58.643Z,79.58
2022-11-22T10:13:32.571Z,79.49
2022-11-22T10:16:09.927Z,79.04
2022-11-22T10:18:43.333Z,78.25
2022-11-22T10:21:14.393Z,77.85
2022-11-22T10:23:44.306Z,77.15
2022-11-22T10:26:23.290Z,79.08
2022-11-22T10:29:05.326Z,78.64
2022-11-22T10:31:42.279Z,78.48
2022-11-22T10:34:20.005Z,78.55
2022-11-22T10:36:57.064Z,78.15
2022-11-22T10:39:42.439Z,77.99
2022-11-22T10:42:24.361Z,78.08
2022-11-22T10:45:01.947Z,77.52
2022-11-22T10:47:54.195Z,78.01
2022-11-22T10:50:27.681Z,77.65
2022-11-22T10:53:06.711Z,77.12
2022-11-22T10:55:53.059Z,76.90
2022-11-22T10:58:33.936Z,76.65
2022-11-22T11:01:08.425Z,76.68
2022-11-22T11:03:40.120Z,76.73
2022-11-22T11:06:24.526Z,75.84
2022-11-22T11:11:56.189Z,75.07
2022-11-22T11:14:33.890Z,74.75
2022-11-22T11:17:03.963Z,74.50
2022-11-22T11:19:38.274Z,74.64
2022-11-22T11:22:26.122Z,75.64
2022-11-22T11:25:31.595Z,76.71
2022-11-22T11:28:03.900Z,75.98
2022-11-22T11:30:40.080Z,75.12
2022-11-22T11:33:19.533Z,75.43
2022-11-22T11:35:48.410Z,75.38
2022-11-22T11:38:36.408Z,75.69
2022-11-22T11:41:25.212Z,74.53
2022-11-22T11:43:54.148Z,74.63
2022-11-22T11:46:23.760Z,72.89
2022-11-22T11:48:53.330Z,71.15
2022-11-22T11:51:38.653Z,66.24
2022-11-22T11:54:12.134Z,63.63
2022-11-22T11:56:52.306Z,60.51
2022-11-22T11:59:22.334Z,60.96
2022-11-22T12:01:58.482Z,58.29
2022-11-22T12:04:29.933Z,56.77
2022-11-22T12:07:04.244Z,54.71
2022-11-22T12:09:37.537Z,53.03
2022-11-22T12:12:31.157Z,51.27
2022-11-22T12:15:11.927Z,50.33
2022-11-22T12:17:50.010Z,51.43
2022-11-22T12:20:23.155Z,51.45
2022-11-22T12:23:08.039Z,52.64
2022-11-22T12:25:45.168Z,53.51
2022-11-22T12:28:19.990Z,53.32
2022-11-22T12:30:54.262Z,53.52
2022-11-22T12:33:28.697Z,53.82
2022-11-22T12:35:58.548Z,54.61
2022-11-22T12:38:33.025Z,55.75
2022-11-22T12:41:04.543Z,56.02
2022-11-22T12:43:39.129Z,56.53
2022-11-22T12:46:13.059Z,57.01
2022-11-22T12:48:48.911Z,56.67
2022-11-22T12:51:24.904Z,57.97
2022-11-22T12:53:54.225Z,57.80
2022-11-22T12:56:33.382Z,57.71
2022-11-22T12:59:14.759Z,58.60
2022-11-22T13:01:48.947Z,59.81
2022-11-22T13:04:23.736Z,60.25
2022-11-22T13:06:58.776Z,60.05
2022-11-22T13:09:31.575Z,61.76
2022-11-22T13:12:04.164Z,62.33
2022-11-22T13:14:36.976Z,62.26
2022-11-22T13:17:08.316Z,63.11
2022-11-22T13:19:47.083Z,61.96
2022-11-22T13:22:26.870Z,62.43
2022-11-22T13:25:10.450Z,62.47
2022-11-22T13:27:44.373Z,61.69
2022-11-22T13:30:20.727Z,62.04
2022-11-22T13:32:52.045Z,62.59
2022-11-22T13:35:27.724Z,62.26
2022-11-22T13:37:58.032Z,62.38
2022-11-22T13:40:32.108Z,62.04
2022-11-22T13:43:50.410Z,62.87
2022-11-22T13:46:54.464Z,62.79
2022-11-22T13:49:41.093Z,63.17
2022-11-22T13:52:51.345Z,62.70
2022-11-22T13:55:36.013Z,63.40
2022-11-22T13:58:55.644Z,62.91
2022-11-22T14:01:59.135Z,63.33
2022-11-22T14:04:45.219Z,66.89
2022-11-22T14:07:35.843Z,68.45
2022-11-22T14:10:05.187Z,70.70
2022-11-22T14:13:18.418Z,73.25
2022-11-22T14:15:58.271Z,77.22
2022-11-22T14:18:52.805Z,78.90
2022-11-22T14:21:41.564Z,77.48
2022-11-22T14:24:15.426Z,76.35
2022-11-22T14:26:54.503Z,77.24
2022-11-22T14:29:53.785Z,77.78
2022-11-22T14:32:23.801Z,76.73
2022-11-22T14:35:26.370Z,78.27
2022-11-22T14:38:03.863Z,79.60
2022-11-22T14:40:37.531Z,79.13
2022-11-22T14:43:35.528Z,78.09
2022-11-22T14:46:37.355Z,77.78
2022-11-22T14:49:07.735Z,76.79
2022-11-22T14:51:37.837Z,76.74
2022-11-22T14:54:20.538Z,76.54
2022-11-22T14:56:49.440Z,76.16
2022-11-22T14:59:37.023Z,76.43
2022-11-22T15:02:31.331Z,76.24
2022-11-22T15:09:13.282Z,76.01
2022-11-22T15:09:21.983Z,76.53
2022-11-22T15:11:29.591Z,77.20
2022-11-22T15:14:46.465Z,76.70
2022-11-22T15:57:38.117Z,76.72
2022-11-22T16:00:12.197Z,77.53
2022-11-22T16:02:48.693Z,77.30
2022-11-22T16:06:08.153Z,77.66
2022-11-22T16:08:15.570Z,77.48
2022-11-22T16:10:45.668Z,76.81
2022-11-22T16:13:29.144Z,77.32
2022-11-22T16:16:08.884Z,77.13
2022-11-22T16:18:37.071Z,76.95
2022-11-22T16:21:07.262Z,76.36
2022-11-22T16:23:37.434Z,76.25
2022-11-22T16:26:24.886Z,76.52
2022-11-22T16:28:55.369Z,75.83
2022-11-22T16:31:24.976Z,75.66
2022-11-22T16:33:54.735Z,75.95
2022-11-22T16:36:24.776Z,76.31
2022-11-22T16:38:52.707Z,75.90
2022-11-22T16:41:23.706Z,76.08
2022-11-22T16:43:57.774Z,76.27
2022-11-22T16:46:25.765Z,76.27
2022-11-22T16:48:54.402Z,76.57
2022-11-22T16:51:24.715Z,76.66
2022-11-22T16:53:54.273Z,77.41
2022-11-22T16:56:23.429Z,76.75
2022-11-22T16:58:52.695Z,76.47
2022-11-22T17:01:24.178Z,76.41
2022-11-22T17:03:54.371Z,76.75
2022-11-22T17:06:24.437Z,75.97
2022-11-22T17:08:54.523Z,75.59
2022-11-22T17:11:24.889Z,76.52
2022-11-22T17:13:53.146Z,75.84
2022-11-22T17:16:22.664Z,75.41
2022-11-22T17:18:50.693Z,75.34
2022-11-22T17:21:25.763Z,75.69
2022-11-22T17:23:55.909Z,75.25
2022-11-22T17:26:24.607Z,75.31
2022-11-22T17:28:52.667Z,75.53
2022-11-22T17:31:23.481Z,75.26
2022-11-22T17:33:52.458Z,75.30
2022-11-22T17:36:26.395Z,76.41
2022-11-22T17:38:54.361Z,76.09
2022-11-22T17:41:22.633Z,75.66
2022-11-22T17:43:51.747Z,75.47
2022-11-22T17:46:20.058Z,75.27
2022-11-22T17:48:54.095Z,75.54
2022-11-22T17:51:22.695Z,75.89
2022-11-22T17:53:50.741Z,75.88
2022-11-22T17:56:18.684Z,75.54
2022-11-22T17:58:46.889Z,75.48
2022-11-22T18:01:16.483Z,75.97
2022-11-22T18:03:45.477Z,76.33
2022-11-22T18:06:16.002Z,76.95
2022-11-22T18:08:47.197Z,76.74
2022-11-22T18:11:16.174Z,76.59
2022-11-22T18:13:44.640Z,77.07
2022-11-22T18:16:15.713Z,76.37
2022-11-22T18:18:59.530Z,76.78
2022-11-22T18:21:30.282Z,77.80
2022-11-22T18:23:58.836Z,77.83
2022-11-22T18:26:42.986Z,77.56
2022-11-22T18:32:01.438Z,77.10
2022-11-22T18:34:29.599Z,76.91
2022-11-22T18:37:03.832Z,76.95
2022-11-22T18:39:33.941Z,77.14
2022-11-22T18:42:02.494Z,77.35
2022-11-22T18:44:30.524Z,77.62
2022-11-22T18:46:58.456Z,78.16
2022-11-22T18:49:26.419Z,78.08
2022-11-22T18:51:54.477Z,78.12
2022-11-22T18:54:23.840Z,78.28
2022-11-22T18:56:51.814Z,78.28
2022-11-22T18:59:20.053Z,78.62
2022-11-22T19:01:48.232Z,78.34
2022-11-22T19:04:17.036Z,78.67
2022-11-22T19:06:45.995Z,78.63
2022-11-22T19:09:14.072Z,78.60
2022-11-22T19:11:43.544Z,78.24
2022-11-22T19:14:11.486Z,78.51
2022-11-22T19:16:39.501Z,78.74
2022-11-22T19:19:08.464Z,78.56
2022-11-22T19:21:36.409Z,78.25
2022-11-22T19:24:04.766Z,78.87
2022-11-22T19:26:32.836Z,78.79
2022-11-22T19:29:02.888Z,78.75
2022-11-22T19:31:31.691Z,79.03
2022-11-22T19:34:00.104Z,79.46
2022-11-22T19:36:33.778Z,79.08
2022-11-22T19:39:03.765Z,79.14
2022-11-22T19:41:32.054Z,79.38
2022-11-22T19:44:00.154Z,79.06
2022-11-22T19:46:30.133Z,78.89
2022-11-22T19:48:59.767Z,78.84
2022-11-22T19:51:30.982Z,78.98
2022-11-22T19:54:02.242Z,79.25
2022-11-22T19:56:32.936Z,79.46
2022-11-22T19:59:02.405Z,79.63
2022-11-22T20:01:33.662Z,79.23
2022-11-22T20:04:04.514Z,78.88
2022-11-22T20:06:33.524Z,78.85
2022-11-22T20:09:02.904Z,79.35
2022-11-22T20:11:30.825Z,79.09
2022-11-22T20:13:59.058Z,79.23
2022-11-22T20:16:29.074Z,79.79
2022-11-22T20:18:59.797Z,79.60
2022-11-22T20:21:33.970Z,80.55
2022-11-22T20:24:02.910Z,80.01
2022-11-22T20:26:32.459Z,80.30
2022-11-22T20:29:02.217Z,80.25
2022-11-22T20:31:32.165Z,80.07
2022-11-22T20:34:03.118Z,79.64
2022-11-22T20:36:32.295Z,80.17
2022-11-22T20:39:04.161Z,79.77
2022-11-22T20:41:37.290Z,79.58
2022-11-22T20:44:06.769Z,79.75
2022-11-22T20:46:37.760Z,79.86
2022-11-22T20:49:07.821Z,79.82
2022-11-22T20:51:39.659Z,79.88
2022-11-22T20:54:08.622Z,80.54
2022-11-22T20:56:37.254Z,80.67
2022-11-22T20:59:05.304Z,80.98
2022-11-22T21:01:33.509Z,80.88
2022-11-22T21:04:01.549Z,80.08
2022-11-22T21:06:32.878Z,79.33
2022-11-22T21:09:00.860Z,79.62
2022-11-22T21:11:31.049Z,79.39
2022-11-22T21:13:59.733Z,79.15
2022-11-22T21:16:30.071Z,79.26
2022-11-22T21:19:01.045Z,79.29
2022-11-22T21:21:31.673Z,79.73
2022-11-22T21:24:01.513Z,80.07
2022-11-22T21:26:30.419Z,79.47
2022-11-22T21:28:59.461Z,79.25
2022-11-22T21:31:28.297Z,79.12
2022-11-22T21:33:56.278Z,79.09
2022-11-22T21:36:24.195Z,79.20
2022-11-22T21:38:53.593Z,78.85
2022-11-22T21:41:40.318Z,79.46
2022-11-22T21:44:09.536Z,79.69
2022-11-22T21:46:37.870Z,80.38
2022-11-22T21:49:05.830Z,80.45
2022-11-22T21:51:33.870Z,79.93
2022-11-22T21:54:03.710Z,79.71
2022-11-22T21:56:31.928Z,80.51
2022-11-22T21:59:00.167Z,80.32
2022-11-22T22:01:28.489Z,80.10
2022-11-22T22:03:56.524Z,80.15
2022-11-22T22:06:25.209Z,80.55
2022-11-22T22:08:53.421Z,80.58
2022-11-22T22:11:23.133Z,80.14
2022-11-22T22:13:53.311Z,79.29
2022-11-22T22:16:23.657Z,79.33
2022-11-22T22:18:51.713Z,79.39
2022-11-22T22:21:20.439Z,79.32
2022-11-22T22:23:48.644Z,79.16
2022-11-22T22:26:18.277Z,80.28
2022-11-22T22:28:47.790Z,79.90
2022-11-22T22:31:21.568Z,79.48
2022-11-22T22:33:51.224Z,79.33
2022-11-22T22:36:20.098Z,79.03
2022-11-22T22:38:48.285Z,79.02
2022-11-22T22:41:16.292Z,78.75
2022-11-22T22:43:46.487Z,78.73
2022-11-22T22:46:17.512Z,78.74
2022-11-22T22:48:46.053Z,78.89
2022-11-22T22:51:16.468Z,78.69
2022-11-22T22:53:46.553Z,78.76
2022-11-22T22:56:15.978Z,78.45
2022-11-22T22:58:44.545Z,78.37
2022-11-22T23:01:17.550Z,78.08
2022-11-22T23:03:48.864Z,78.22
2022-11-22T23:06:17.601Z,78.05
2022-11-22T23:08:47.361Z,78.30
2022-11-22T23:11:16.758Z,78.34
2022-11-22T23:13:45.303Z,79.82
2022-11-22T23:16:15.191Z,81.06
2022-11-22T23:18:45.819Z,82.05
2022-11-22T23:21:15.927Z,81.29
2022-11-22T23:23:46.985Z,81.67
2022-11-22T23:26:15.028Z,81.53
2022-11-22T23:28:42.930Z,82.45
2022-11-22T23:31:12.449Z,83.07
2022-11-22T23:33:40.864Z,81.65
2022-11-22T23:36:12.525Z,82.16
2022-11-22T23:38:40.816Z,82.39
2022-11-22T23:41:10.100Z,82.16
2022-11-22T23:43:37.998Z,81.90
2022-11-22T23:46:06.145Z,82.94
2022-11-22T23:48:34.092Z,83.12
2022-11-22T23:51:04.274Z,82.81
2022-11-22T23:53:33.705Z,82.72
2022-11-22T23:56:06.659Z,83.54
2022-11-22T23:58:34.961Z,83.50
